Buoy 13526

sailwx.info

Track history (hours):
 
Tides and Currents Weather Stations Pressure Air Temp Water Temp Dewpoint Dewpoint Depression Visibility Wind Speed Wind Dir Waves Ship Positions

Drifting buoy 13526

Last reported at 2017-Jan-17 00:00 UTC. Time now 2017-Jan-17 00:54 UTC.
Position N 26°25' W 067°32'.

Water temperature 24.2 ° C

Date/timePositionNaut miles runAvg speedWind from/ knotsBaromVisibWave heightAir tempDewpointWater temp
2017-Jan-17 00:00N 26°25' W 067°32'0 0.0 24.2
2017-Jan-16 22:53N 26°25' W 067°32'0 0.0 24.2
2017-Jan-16 22:51N 26°25' W 067°32'0 0.0 24.2
2017-Jan-16 22:47N 26°25' W 067°32'1 1.4 24.2
2017-Jan-16 22:21N 26°26' W 067°32'0 0.0 24.2
2017-Jan-16 22:07N 26°26' W 067°32'1 6.0 24.2
2017-Jan-16 22:01N 26°26' W 067°32'0 0.0 24.2
2017-Jan-16 21:12N 26°26' W 067°32'1 1.3 24.3
2017-Jan-16 20:45N 26°26' W 067°32'1 6.9 24.3
2017-Jan-16 20:38N 26°26' W 067°32'0 0.0 24.3
2017-Jan-16 20:29N 26°26' W 067°32'0 0.0 24.3
2017-Jan-16 19:06N 26°26' W 067°32'0 0.0 24.3
2017-Jan-16 19:04N 26°26' W 067°32'1 8.1 24.3
2017-Jan-16 19:00N 26°26' W 067°32'1 0.8 24.3
2017-Jan-16 17:25N 26°27' W 067°31'0 0.0 24.4
2017-Jan-16 17:22N 26°27' W 067°31'1 0.5 24.4
2017-Jan-16 15:53N 26°28' W 067°31'0 0.0 24.4
2017-Jan-16 15:05N 26°28' W 067°31'0 0.0 24.3
2017-Jan-16 15:00N 26°28' W 067°31'1 0.7 24.3
2017-Jan-16 14:16N 26°28' W 067°30'0 0.0 24.3
2017-Jan-16 14:11N 26°28' W 067°30'0 0.0 24.3
2017-Jan-16 13:22N 26°28' W 067°30'1 6.0 24.3
2017-Jan-16 13:10N 26°29' W 067°30'1 1.0 24.3
2017-Jan-16 12:33N 26°28' W 067°30'1 0.6 24.3
2017-Jan-16 11:41N 26°28' W 067°29'0 0.0 24.3
2017-Jan-16 11:35N 26°28' W 067°29'322.1 24.3
2017-Jan-16 11:27N 26°27' W 067°26'3 1.9 24.3
2017-Jan-16 10:03N 26°25' W 067°28'0 0.0 24.3
2017-Jan-16 10:00N 26°25' W 067°28'116.1 24.3
2017-Jan-16 09:57N 26°25' W 067°27'878.0 24.3
2017-Jan-16 09:51N 26°33' W 067°27'2 1.6 24.3
2017-Jan-16 08:20N 26°31' W 067°27'2 4.5 24.3
2017-Jan-16 07:48N 26°33' W 067°27'2 0.3 24.3
2017-Jan-16 02:37N 26°32' W 067°25'0 0.0 24.3
2017-Jan-16 02:34N 26°32' W 067°25'1 1.8 24.3
2017-Jan-16 01:52N 26°33' W 067°24'0 0.0 24.3
2017-Jan-16 01:46N 26°33' W 067°24'1 0.8 24.3
2017-Jan-16 01:00N 26°34' W 067°24'0 0.0 24.3
2017-Jan-16 00:53N 26°34' W 067°24'0 0.0 24.3
2017-Jan-16 00:43N 26°34' W 067°24'1 3.2 24.3
2017-Jan-16 00:28N 26°34' W 067°23'1 1.9 24.3
2017-Jan-16 00:11N 26°34' W 067°23'0 0.0
2017-Jan-15 23:05N 26°34' W 067°23'0 0.0 24.3
2017-Jan-15 23:01N 26°34' W 067°23'0 0.0 24.3
2017-Jan-15 22:58N 26°34' W 067°23'1 3.6 24.3
2017-Jan-15 22:48N 26°35' W 067°23'0 0.0 24.3
2017-Jan-15 22:45N 26°35' W 067°23'0 0.0 24.3
2017-Jan-15 22:33N 26°35' W 067°23'1 6.4 24.3
2017-Jan-15 22:28N 26°35' W 067°22'1 0.6 24.3
2017-Jan-15 21:24N 26°35' W 067°22'0 0.0 24.3
2017-Jan-15 21:18N 26°35' W 067°22'0 0.0 24.3
2017-Jan-15 21:06N 26°35' W 067°22'2 6.9 24.3
2017-Jan-15 20:52N 26°37' W 067°21'0 0.0 24.3
2017-Jan-15 19:15N 26°37' W 067°21'0 0.0 24.3
2017-Jan-15 19:09N 26°37' W 067°21'1 0.7 24.3
2017-Jan-15 17:36N 26°37' W 067°20'1 0.6 24.3
2017-Jan-15 15:25N 26°38' W 067°19'1 8.0 24.3
2017-Jan-15 15:21N 26°38' W 067°19'0 0.0 24.3
2017-Jan-15 14:38N 26°38' W 067°19'0 0.0 24.3
2017-Jan-15 14:33N 26°38' W 067°19'1 6.4 24.3
2017-Jan-15 14:28N 26°38' W 067°18'0 0.0 24.3
2017-Jan-15 13:44N 26°38' W 067°18'0 0.0 24.3
2017-Jan-15 13:42N 26°38' W 067°18'1 3.1 24.3
2017-Jan-15 13:21N 26°38' W 067°17'0 0.0 24.3
2017-Jan-15 12:56N 26°38' W 067°17'0 0.0 24.3
2017-Jan-15 12:09N 26°38' W 067°17'0 0.0 24.3
2017-Jan-15 11:46N 26°38' W 067°17'1 4.0 24.3
2017-Jan-15 11:38N 26°38' W 067°16'0 0.0 24.3
2017-Jan-15 11:23N 26°38' W 067°16'0 0.0 24.3
2017-Jan-15 11:20N 26°38' W 067°16'1 6.4 24.3
2017-Jan-15 11:15N 26°38' W 067°16'1 0.8 24.3
2017-Jan-15 10:34N 26°38' W 067°15'0 0.0 24.3
2017-Jan-15 10:31N 26°38' W 067°15'1 9.7 24.3
2017-Jan-15 10:26N 26°37' W 067°16'1 2.3 24.3
2017-Jan-15 10:05N 26°38' W 067°15'1 6.4 24.3
2017-Jan-15 10:00N 26°38' W 067°16'1 1.8 24.3
2017-Jan-15 09:42N 26°38' W 067°15'1 9.2 24.3
2017-Jan-15 09:34N 26°37' W 067°14'0 0.0 24.3
2017-Jan-15 08:50N 26°37' W 067°14'232.2 24.3
2017-Jan-15 08:47N 26°37' W 067°12'1 0.6 24.3
2017-Jan-15 07:53N 26°37' W 067°13'114.7 24.3
2017-Jan-15 07:48N 26°38' W 067°11'0 0.0 24.3
2017-Jan-15 06:13N 26°38' W 067°11'2 0.7 24.3
2017-Jan-15 03:00N 26°38' W 067°09'1 0.7 24.3
2017-Jan-15 02:14N 26°38' W 067°08'1 3.6
2017-Jan-15 02:05N 26°38' W 067°08'0 0.0 24.3
2017-Jan-15 01:22N 26°38' W 067°08'0 0.0 24.3
2017-Jan-15 01:19N 26°38' W 067°08'110.7 24.3
2017-Jan-15 01:13N 26°38' W 067°07'0 0.0 24.3
2017-Jan-15 00:34N 26°38' W 067°07'1 8.0 24.3
2017-Jan-15 00:28N 26°37' W 067°07'1 1.4 24.3
2017-Jan-14 23:36N 26°38' W 067°06'0 0.0 24.3
2017-Jan-14 23:24N 26°38' W 067°06'0 0.0 24.3
2017-Jan-14 23:16N 26°38' W 067°06'0 0.0 24.3
2017-Jan-14 23:13N 26°38' W 067°06'0 0.0 24.3
2017-Jan-14 23:08N 26°38' W 067°06'0 0.0 24.3
2017-Jan-14 22:52N 26°38' W 067°06'1 1.1 24.4
2017-Jan-14 21:43N 26°38' W 067°05'1 4.6 24.4
2017-Jan-14 21:36N 26°38' W 067°04'1 9.0 24.4
2017-Jan-14 21:32N 26°38' W 067°04'110.7 24.4
2017-Jan-14 21:29N 26°38' W 067°05'1 4.0 24.4
2017-Jan-14 21:21N 26°38' W 067°04'0 0.0 24.4
2017-Jan-14 21:13N 26°38' W 067°04'0 0.0 24.4
2017-Jan-14 21:06N 26°38' W 067°04'1 0.8 24.4
2017-Jan-14 19:28N 26°39' W 067°04'1 9.2 24.4
2017-Jan-14 19:20N 26°40' W 067°02'0 0.0 24.4
2017-Jan-14 17:48N 26°40' W 067°02'115.8 24.4
2017-Jan-14 17:43N 26°41' W 067°02'0 0.0 24.4
2017-Jan-14 17:40N 26°41' W 067°02'0 0.0 24.4
2017-Jan-14 15:42N 26°41' W 067°02'0 0.0 24.4
2017-Jan-14 15:01N 26°41' W 067°02'0 0.0 24.4
2017-Jan-14 14:52N 26°41' W 067°02'1 0.8 24.4
2017-Jan-14 14:04N 26°41' W 067°02'1 4.0 24.4
2017-Jan-14 13:56N 26°41' W 067°01'0 0.0 24.4
2017-Jan-14 13:18N 26°41' W 067°01'1 8.0 24.4
2017-Jan-14 13:14N 26°41' W 067°02'1 1.4 24.4
2017-Jan-14 12:21N 26°42' W 067°01'0 0.0 24.4
2017-Jan-14 11:52N 26°42' W 067°01'0 0.0 24.4
2017-Jan-14 11:46N 26°42' W 067°01'0 0.0 24.4
2017-Jan-14 11:05N 26°42' W 067°01'0 0.0 24.4
2017-Jan-14 11:02N 26°42' W 067°01'1 4.8 24.4
2017-Jan-14 10:52N 26°43' W 067°00'0 0.0
2017-Jan-14 10:16N 26°43' W 067°00'0 0.0 24.4
2017-Jan-14 10:11N 26°43' W 067°00'0 0.0 24.4
2017-Jan-14 10:06N 26°43' W 067°00'0 0.0 24.4
2017-Jan-14 09:47N 26°43' W 067°00'0 0.0 24.4
2017-Jan-14 09:25N 26°43' W 067°00'0 0.0 24.4
2017-Jan-14 09:20N 26°43' W 067°00'1 8.0 24.4
2017-Jan-14 09:16N 26°43' W 066°59'0 0.0 24.4
2017-Jan-14 08:07N 26°43' W 066°59'115.8 24.4
2017-Jan-14 08:02N 26°44' W 066°59'1 0.3 24.4
2017-Jan-14 03:20N 26°44' W 066°58'0 0.0 24.2
2017-Jan-14 03:17N 26°44' W 066°58'0 0.0 24.2
2017-Jan-14 02:36N 26°44' W 066°58'0 0.0 24.2
2017-Jan-14 02:33N 26°44' W 066°58'1 0.9 24.2
2017-Jan-14 01:42N 26°45' W 066°57'0 0.0 24.2
2017-Jan-14 01:34N 26°45' W 066°57'1 1.1 24.2
2017-Jan-14 00:51N 26°46' W 066°56'110.7 24.2
2017-Jan-14 00:48N 26°46' W 066°56'0 0.0 24.2
2017-Jan-13 23:59N 26°46' W 066°56'1 5.1 24.2
2017-Jan-13 23:52N 26°46' W 066°56'116.1 24.2
2017-Jan-13 23:50N 26°46' W 066°55'0 0.0 24.2
2017-Jan-13 23:26N 26°46' W 066°55'110.3 24.2
2017-Jan-13 23:19N 26°47' W 066°55'1 0.7 24.2
2017-Jan-13 22:13N 26°48' W 066°55'0 0.0 24.3
2017-Jan-13 21:46N 26°48' W 066°55'112.0
2017-Jan-13 21:43N 26°47' W 066°55'352.6 24.2
2017-Jan-13 21:40N 26°50' W 066°53'0 0.0 24.2
2017-Jan-13 19:37N 26°50' W 066°53'221.6 24.3
2017-Jan-13 19:32N 26°52' W 066°53'0 0.0 24.3
2017-Jan-13 18:00N 26°52' W 066°53'430.9 24.3
2017-Jan-13 17:53N 26°55' W 066°53'0 0.0 24.3
2017-Jan-13 15:16N 26°55' W 066°53'1 1.0 24.3
2017-Jan-13 14:26N 26°56' W 066°54'1 6.0 24.3
2017-Jan-13 14:20N 26°56' W 066°54'0 0.0 24.3
2017-Jan-13 13:40N 26°56' W 066°54'214.1
2017-Jan-13 13:32N 26°58' W 066°55'0 0.0 24.3
2017-Jan-13 12:43N 26°58' W 066°55'1 5.3 24.2
2017-Jan-13 12:37N 26°58' W 066°55'1 1.0
2017-Jan-13 12:06N 26°58' W 066°55'0 0.0 24.2
2017-Jan-13 12:05N 26°58' W 066°55'1 2.2 24.2
2017-Jan-13 11:36N 26°58' W 066°56'1 1.0 24.1
2017-Jan-13 10:22N 26°59' W 066°56'1 0.7 24.0
2017-Jan-13 08:22N 27°01' W 066°55'0 0.0 23.6
2017-Jan-13 08:16N 27°01' W 066°55'1 8.0 23.6
2017-Jan-13 08:10N 27°01' W 066°55'2 0.5 23.6
2017-Jan-13 03:37N 27°03' W 066°53'1 0.8 23.5
2017-Jan-13 02:53N 27°04' W 066°53'1 0.6 23.4
2017-Jan-13 02:02N 27°04' W 066°53'1 4.4 23.3
2017-Jan-13 01:51N 27°04' W 066°52'0 0.0 23.3
2017-Jan-13 01:16N 27°04' W 066°52'0 0.0 23.3
2017-Jan-13 01:13N 27°04' W 066°52'1 4.5 23.3
2017-Jan-13 01:05N 27°05' W 066°52'0 0.0 23.3
2017-Jan-13 00:22N 27°05' W 066°52'0 0.0 23.2
2017-Jan-13 00:15N 27°05' W 066°52'0 0.0 23.2
2017-Jan-12 23:46N 27°05' W 066°52'1 4.8 23.2
2017-Jan-12 23:36N 27°05' W 066°52'1 0.7 23.2
2017-Jan-12 22:46N 27°06' W 066°52'1 4.5 23.0
2017-Jan-12 22:38N 27°07' W 066°52'0 0.0 23.0
2017-Jan-12 22:06N 27°07' W 066°52'0 0.0 22.8
2017-Jan-12 22:00N 27°07' W 066°52'1 4.0 22.8
2017-Jan-12 21:52N 27°07' W 066°51'2 2.0 22.7
2017-Jan-12 21:03N 27°08' W 066°50'0 0.0 22.7
2017-Jan-12 20:26N 27°08' W 066°50'0 0.0 22.7
2017-Jan-12 19:53N 27°08' W 066°50'0 0.0 22.7
2017-Jan-12 19:50N 27°08' W 066°50'110.3 22.7
2017-Jan-12 19:43N 27°09' W 066°50'0 0.0 22.7
2017-Jan-12 18:07N 27°09' W 066°50'357.7 22.7
2017-Jan-12 18:04N 27°11' W 066°48'0 0.0 22.7
2017-Jan-12 15:37N 27°11' W 066°48'1 0.7 22.7
2017-Jan-12 14:47N 27°12' W 066°48'1 8.0 22.7
2017-Jan-12 14:41N 27°13' W 066°47'0 0.0 22.7
2017-Jan-12 14:00N 27°13' W 066°47'214.1 22.7
2017-Jan-12 13:52N 27°14' W 066°48'0 0.0 22.7
2017-Jan-12 13:05N 27°14' W 066°48'1 1.0 22.7
2017-Jan-12 12:34N 27°14' W 066°47'1 2.7 22.7
2017-Jan-12 12:22N 27°14' W 066°47'0 0.0 22.7
2017-Jan-12 12:17N 27°14' W 066°47'113.1 22.7
2017-Jan-12 12:11N 27°16' W 066°47'0 0.0 22.7
2017-Jan-12 12:02N 27°16' W 066°47'0 0.0 22.7
2017-Jan-12 10:53N 27°16' W 066°47'1 2.3 22.7
2017-Jan-12 10:39N 27°16' W 066°47'110.7 22.7
2017-Jan-12 10:36N 27°16' W 066°47'1 4.0 22.7
2017-Jan-12 10:27N 27°16' W 066°47'1 4.5 22.7
2017-Jan-12 10:19N 27°16' W 066°47'1 1.1 22.7
2017-Jan-12 09:16N 27°17' W 066°47'119.7 22.7
2017-Jan-12 09:12N 27°18' W 066°47'0 0.0 22.7
2017-Jan-12 08:47N 27°18' W 066°47'0 0.0 22.7
2017-Jan-12 08:33N 27°18' W 066°47'0 0.0 22.7
2017-Jan-12 08:29N 27°18' W 066°47'2 1.2 22.7
2017-Jan-12 06:46N 27°19' W 066°49'448.2 22.8
2017-Jan-12 06:41N 27°22' W 066°46'0 0.0 22.8
2017-Jan-12 03:07N 27°22' W 066°46'0 0.0 22.8
2017-Jan-12 02:24N 27°22' W 066°46'1 4.5 22.8
2017-Jan-12 02:16N 27°23' W 066°46'0 0.0 22.8
2017-Jan-12 01:38N 27°23' W 066°46'1 3.3 22.7
2017-Jan-12 01:27N 27°23' W 066°46'1 0.9 22.7
2017-Jan-12 00:49N 27°24' W 066°46'1 6.0
2017-Jan-12 00:43N 27°23' W 066°46'1 4.5 22.7
2017-Jan-12 00:35N 27°24' W 066°46'0 0.0 22.7
2017-Jan-12 00:10N 27°24' W 066°46'0 0.0 22.7
2017-Jan-11 23:52N 27°24' W 066°46'0 0.0 22.7
2017-Jan-11 23:49N 27°24' W 066°46'1 1.5 22.7
2017-Jan-11 23:17N 27°25' W 066°45'1 6.4 22.7
2017-Jan-11 23:12N 27°25' W 066°46'1 1.2 22.7
2017-Jan-11 22:32N 27°25' W 066°45'0 0.0 22.7
2017-Jan-11 22:29N 27°25' W 066°45'0 0.0 22.7
2017-Jan-11 22:23N 27°25' W 066°45'0 0.0
2017-Jan-11 22:06N 27°25' W 066°45'132.0 22.7
2017-Jan-11 22:05N 27°25' W 066°46'1 2.7 22.7
2017-Jan-11 21:36N 27°26' W 066°45'1 0.8 22.7
2017-Jan-11 20:53N 27°27' W 066°45'0 0.0 22.7
2017-Jan-11 20:51N 27°27' W 066°45'0 0.0
2017-Jan-11 20:04N 27°27' W 066°45'0 0.0 22.7
2017-Jan-11 20:01N 27°27' W 066°45'1 0.7 22.7
2017-Jan-11 18:24N 27°28' W 066°45'0 0.0 22.6
2017-Jan-11 18:19N 27°28' W 066°45'0 0.0 22.6
2017-Jan-11 18:16N 27°28' W 066°45'2 0.8 22.6
2017-Jan-11 16:00N 27°30' W 066°45'1 4.0 22.6
2017-Jan-11 15:52N 27°30' W 066°46'0 0.0
2017-Jan-11 15:06N 27°30' W 066°46'124.0 22.6
2017-Jan-11 15:03N 27°31' W 066°46'1 0.7 22.6
2017-Jan-11 14:16N 27°31' W 066°46'0 0.0
2017-Jan-11 14:14N 27°31' W 066°46'0 0.0 22.6
2017-Jan-11 13:25N 27°31' W 066°46'1 1.3 22.6
2017-Jan-11 12:31N 27°32' W 066°46'1 5.1 22.6
2017-Jan-11 12:24N 27°33' W 066°46'0 0.0 22.6
2017-Jan-11 11:21N 27°33' W 066°46'0 0.0 22.7
2017-Jan-11 10:58N 27°33' W 066°46'1 4.5 22.7
2017-Jan-11 10:42N 27°34' W 066°46'0 0.0 22.7
2017-Jan-11 09:36N 27°34' W 066°46'0 0.0 22.7
2017-Jan-11 09:20N 27°34' W 066°46'1 1.3 22.7
2017-Jan-11 08:44N 27°35' W 066°47'110.6 22.6
2017-Jan-11 08:41N 27°35' W 066°46'113.1 22.6
2017-Jan-11 08:35N 27°36' W 066°47'0 0.0 22.6
2017-Jan-11 07:03N 27°36' W 066°47'0 0.0 22.6
2017-Jan-11 07:00N 27°36' W 066°47'325.5 22.6
2017-Jan-11 06:52N 27°39' W 066°45'0 0.0 22.7
2017-Jan-11 02:38N 27°39' W 066°45'1 1.0 22.7
2017-Jan-11 01:52N 27°40' W 066°44'1 0.8 22.7
2017-Jan-11 01:04N 27°40' W 066°44'0 0.0 22.7
2017-Jan-11 01:01N 27°40' W 066°44'1 8.0 22.7
2017-Jan-11 00:57N 27°40' W 066°44'1 0.9 22.7
2017-Jan-11 00:17N 27°41' W 066°44'1 6.4 22.7
2017-Jan-11 00:12N 27°41' W 066°44'0 0.0 22.7
2017-Jan-11 00:01N 27°41' W 066°44'0 0.0 22.7
2017-Jan-10 23:58N 27°41' W 066°44'0 0.0 22.7
2017-Jan-10 23:48N 27°41' W 066°44'0 0.0 22.7
2017-Jan-10 23:45N 27°41' W 066°44'2 2.3 22.7
2017-Jan-10 22:57N 27°43' W 066°44'0 0.0 22.7
2017-Jan-10 22:23N 27°43' W 066°44'0 0.0 22.7
2017-Jan-10 22:19N 27°43' W 066°44'1 2.5 22.7
2017-Jan-10 22:06N 27°43' W 066°44'136.0 22.7
2017-Jan-10 22:05N 27°43' W 066°44'0 0.0 22.6
2017-Jan-10 21:20N 27°43' W 066°44'110.3 22.6
2017-Jan-10 21:13N 27°44' W 066°44'0 0.0 22.6
2017-Jan-10 20:38N 27°44' W 066°44'1 3.1 22.7
2017-Jan-10 20:13N 27°46' W 066°43'0 0.0 22.7
2017-Jan-10 18:35N 27°46' W 066°43'1 4.0 22.6
2017-Jan-10 18:27N 27°46' W 066°44'2 0.7 22.6
2017-Jan-10 15:28N 27°47' W 066°43'112.0 22.7
2017-Jan-10 15:25N 27°48' W 066°43'1 0.8 22.7
2017-Jan-10 14:43N 27°48' W 066°42'0 0.0 22.7
2017-Jan-10 14:40N 27°48' W 066°42'110.6 22.7
2017-Jan-10 14:37N 27°48' W 066°43'2 1.9 22.7
2017-Jan-10 13:47N 27°49' W 066°41'0 0.0 22.7
2017-Jan-10 13:01N 27°49' W 066°41'0 0.0 22.7
2017-Jan-10 12:51N 27°49' W 066°41'0 0.0
2017-Jan-10 12:41N 27°49' W 066°41'115.7 22.7
2017-Jan-10 12:36N 27°50' W 066°41'0 0.0 22.7
2017-Jan-10 12:33N 27°50' W 066°41'0 0.0 22.7
2017-Jan-10 11:45N 27°50' W 066°41'1 4.5 22.7
2017-Jan-10 11:38N 27°50' W 066°40'0 0.0 22.7
2017-Jan-10 11:27N 27°50' W 066°40'1 1.2 22.7
2017-Jan-10 10:58N 27°51' W 066°40'1 6.0 22.7
2017-Jan-10 10:52N 27°52' W 066°40'0 0.0 22.7
2017-Jan-10 10:03N 27°52' W 066°40'0 0.0 22.7
2017-Jan-10 09:58N 27°52' W 066°40'0 0.0 22.7
2017-Jan-10 09:50N 27°52' W 066°40'0 0.0 22.7
2017-Jan-10 09:47N 27°52' W 066°40'113.1 22.7
2017-Jan-10 09:41N 27°53' W 066°40'1 0.6 22.7
2017-Jan-10 08:52N 27°53' W 066°39'227.0 22.7
2017-Jan-10 08:48N 27°55' W 066°39'0 0.0 22.7
2017-Jan-10 08:06N 27°55' W 066°39'0 0.0 22.7
2017-Jan-10 07:13N 27°55' W 066°39'0 0.0 22.7
2017-Jan-10 07:06N 27°55' W 066°39'5289.8 22.7
2017-Jan-10 07:05N 27°59' W 066°38'0 0.0 22.7
2017-Jan-10 03:04N 27°59' W 066°38'2 1.0 22.7
2017-Jan-10 01:24N 28°01' W 066°37'1 8.7 22.7
2017-Jan-10 01:15N 28°02' W 066°38'0 0.0 22.7
2017-Jan-10 00:37N 28°02' W 066°38'0 0.0 22.7
2017-Jan-10 00:32N 28°02' W 066°38'148.0 22.7
2017-Jan-10 00:31N 28°02' W 066°38'0 0.0 22.7
2017-Jan-10 00:17N 28°02' W 066°38'0 0.0 22.7
2017-Jan-10 00:11N 28°02' W 066°38'1 1.1 22.7
2017-Jan-09 23:42N 28°02' W 066°38'0 0.0 22.7
2017-Jan-09 23:22N 28°02' W 066°38'1 1.1 22.7
2017-Jan-09 22:39N 28°03' W 066°38'0 0.0 22.7
2017-Jan-09 22:31N 28°03' W 066°38'0 0.0 22.7
2017-Jan-09 22:28N 28°03' W 066°38'1 1.2 22.7
2017-Jan-09 21:47N 28°04' W 066°38'0 0.0 22.7
2017-Jan-09 21:38N 28°04' W 066°38'2 2.6 22.7
2017-Jan-09 20:56N 28°05' W 066°38'1 6.0 22.7
2017-Jan-09 20:50N 28°05' W 066°38'1 1.6 22.7
2017-Jan-09 20:27N 28°04' W 066°38'1 6.4 22.7
2017-Jan-09 20:22N 28°04' W 066°38'1 0.8 22.7
2017-Jan-09 18:47N 28°05' W 066°38'0 0.0 22.8
2017-Jan-09 18:43N 28°05' W 066°38'0 0.0 22.8
2017-Jan-09 18:40N 28°05' W 066°38'2 1.2 22.8
2017-Jan-09 17:02N 28°07' W 066°37'0 0.0 22.8
2017-Jan-09 15:46N 28°07' W 066°37'0 0.0 22.8
2017-Jan-09 14:59N 28°07' W 066°37'1 0.9 22.8
2017-Jan-09 14:07N 28°07' W 066°36'1 5.3 22.8
2017-Jan-09 14:01N 28°07' W 066°35'0 0.0 22.8
2017-Jan-09 13:22N 28°07' W 066°35'1 8.0 22.8
2017-Jan-09 13:16N 28°08' W 066°35'0 0.0 22.8
2017-Jan-09 12:52N 28°08' W 066°35'112.7 22.8
2017-Jan-09 12:47N 28°08' W 066°34'0 0.0 22.8
2017-Jan-09 12:06N 28°08' W 066°34'1 3.2 22.9
2017-Jan-09 11:56N 28°08' W 066°34'112.0
2017-Jan-09 11:52N 28°08' W 066°34'0 0.0 22.9
2017-Jan-09 11:17N 28°08' W 066°34'1 2.9 22.9
2017-Jan-09 11:06N 28°08' W 066°33'0 0.0 22.9
2017-Jan-09 10:27N 28°08' W 066°33'1 8.0 22.9
2017-Jan-09 10:21N 28°09' W 066°32'110.3 22.9
2017-Jan-09 10:14N 28°10' W 066°32'0 0.0 22.9
2017-Jan-09 09:29N 28°10' W 066°32'0 0.0 22.8
2017-Jan-09 09:06N 28°10' W 066°32'0 0.0 22.9
2017-Jan-09 09:05N 28°10' W 066°32'1 7.2 22.9
2017-Jan-09 09:00N 28°10' W 066°32'237.5 22.9
2017-Jan-09 08:57N 28°11' W 066°32'1 4.6 22.9
2017-Jan-09 08:40N 28°10' W 066°32'1 1.0 22.9
2017-Jan-09 07:25N 28°11' W 066°32'320.0 22.9
2017-Jan-09 07:16N 28°14' W 066°32'0 0.0 22.9
2017-Jan-09 03:23N 28°14' W 066°32'1 0.7 22.9
2017-Jan-09 02:37N 28°14' W 066°32'256.3 22.9
2017-Jan-09 02:35N 28°16' W 066°32'1 0.8 22.9
2017-Jan-09 01:37N 28°17' W 066°32'0 0.0 23.0
2017-Jan-09 00:52N 28°17' W 066°32'1 6.0 23.0
2017-Jan-09 00:46N 28°17' W 066°32'0 0.0 23.0
2017-Jan-09 00:22N 28°17' W 066°32'1 1.9 23.1
2017-Jan-09 00:03N 28°18' W 066°32'116.0 23.1
2017-Jan-09 00:00N 28°19' W 066°33'0 0.0 23.1
2017-Jan-08 23:07N 28°19' W 066°33'124.0
2017-Jan-08 23:05N 28°19' W 066°32'0 0.0 23.0
2017-Jan-08 22:45N 28°19' W 066°32'0 0.0 23.0
2017-Jan-08 22:42N 28°19' W 066°32'0 0.0 23.0
2017-Jan-08 22:38N 28°19' W 066°32'1 1.5 23.1
2017-Jan-08 22:07N 28°20' W 066°33'216.9 23.1
2017-Jan-08 22:01N 28°20' W 066°35'1 1.0 23.1
2017-Jan-08 21:30N 28°20' W 066°34'1 1.8 23.1
2017-Jan-08 21:04N 28°21' W 066°35'1 1.2 23.1
2017-Jan-08 20:35N 28°20' W 066°35'213.3 23.1
2017-Jan-08 20:26N 28°19' W 066°37'0 0.0 23.1
2017-Jan-08 18:52N 28°19' W 066°37'116.0 23.2
2017-Jan-08 18:49N 28°20' W 066°37'1 0.8 23.2
2017-Jan-08 17:16N 28°19' W 066°37'228.1 23.1
2017-Jan-08 17:12N 28°17' W 066°38'0 0.0 23.1
2017-Jan-08 16:07N 28°17' W 066°38'0 0.0 23.1
2017-Jan-08 15:21N 28°17' W 066°38'1 6.9 23.1
2017-Jan-08 15:14N 28°16' W 066°37'0 0.0 23.1
2017-Jan-08 14:30N 28°16' W 066°37'1 8.0 23.1
2017-Jan-08 14:24N 28°16' W 066°38'0 0.0 23.1
2017-Jan-08 13:38N 28°16' W 066°38'1 1.1 23.0
2017-Jan-08 13:04N 28°15' W 066°38'0 0.0 23.0
2017-Jan-08 13:01N 28°15' W 066°38'1 2.4 23.0
2017-Jan-08 12:46N 28°16' W 066°38'0 0.0 23.0
2017-Jan-08 12:43N 28°16' W 066°38'112.0 23.0
2017-Jan-08 12:40N 28°15' W 066°38'0 0.0 23.0
2017-Jan-08 12:35N 28°15' W 066°38'139.3 23.0
2017-Jan-08 12:33N 28°14' W 066°37'0 0.0 23.0
2017-Jan-08 11:27N 28°14' W 066°37'0 0.0 23.0
2017-Jan-08 11:18N 28°14' W 066°37'0 0.0 23.0
2017-Jan-08 10:52N 28°14' W 066°37'0 0.0 22.9
2017-Jan-08 10:49N 28°14' W 066°37'113.1 22.9
2017-Jan-08 10:43N 28°13' W 066°37'0 0.0 22.9
2017-Jan-08 09:43N 28°13' W 066°37'0 0.0 22.9
2017-Jan-08 09:40N 28°13' W 066°37'1 1.4 22.9
2017-Jan-08 09:17N 28°13' W 066°37'0 0.0 22.9
2017-Jan-08 09:13N 28°13' W 066°37'1 6.0 22.9
2017-Jan-08 09:05N 28°12' W 066°37'0 0.0 22.9
2017-Jan-08 07:39N 28°12' W 066°37'0 0.0 22.9
2017-Jan-08 07:36N 28°12' W 066°37'112.0 22.9
2017-Jan-08 07:30N 28°11' W 066°37'0 0.0 22.9
2017-Jan-08 05:52N 28°11' W 066°37'2 0.8 22.9
2017-Jan-08 02:52N 28°08' W 066°37'0 0.0 23.0
2017-Jan-08 02:06N 28°08' W 066°37'1 5.3 23.0
2017-Jan-08 02:00N 28°08' W 066°37'110.6 23.0
2017-Jan-08 01:57N 28°08' W 066°37'0 0.0 23.0
2017-Jan-08 01:20N 28°08' W 066°37'0 0.0 22.9
2017-Jan-08 01:16N 28°08' W 066°37'1 2.0 22.9
2017-Jan-08 00:36N 28°07' W 066°38'1 2.6 22.9
2017-Jan-08 00:22N 28°08' W 066°38'1 7.2 23.0
2017-Jan-08 00:17N 28°07' W 066°38'0 0.0 23.0
2017-Jan-08 00:11N 28°07' W 066°38'0 0.0 23.0
2017-Jan-07 23:38N 28°07' W 066°38'1 1.2 23.0
2017-Jan-07 22:59N 28°07' W 066°38'1 6.9 23.0
2017-Jan-07 22:52N 28°07' W 066°38'1 1.8 23.0
2017-Jan-07 22:32N 28°07' W 066°38'1 1.1 23.0
2017-Jan-07 22:02N 28°07' W 066°38'1 0.8 23.0
2017-Jan-07 21:16N 28°06' W 066°38'1 9.0 23.0
2017-Jan-07 21:12N 28°05' W 066°38'1 2.1 23.0
2017-Jan-07 20:55N 28°06' W 066°38'116.0 23.0
2017-Jan-07 20:52N 28°05' W 066°39'1 6.4 23.0
2017-Jan-07 20:47N 28°05' W 066°38'116.0 23.0
2017-Jan-07 20:44N 28°06' W 066°39'2 1.1 23.0
2017-Jan-07 19:06N 28°04' W 066°40'1 6.0 23.1
2017-Jan-07 19:00N 28°04' W 066°40'0 0.0 23.1
2017-Jan-07 17:28N 28°04' W 066°40'1 9.8 23.1
2017-Jan-07 17:20N 28°02' W 066°39'1 0.4 23.1
2017-Jan-07 15:38N 28°02' W 066°39'0 0.0 23.0
2017-Jan-07 14:50N 28°02' W 066°39'0 0.0 22.9
2017-Jan-07 14:45N 28°02' W 066°39'0 0.0 22.9
2017-Jan-07 14:06N 28°02' W 066°39'0 0.0 22.9
2017-Jan-07 13:59N 28°02' W 066°39'0 0.0 22.9
2017-Jan-07 13:52N 28°02' W 066°39'0 0.0
2017-Jan-07 13:13N 28°02' W 066°39'0 0.0 22.9
2017-Jan-07 13:06N 28°02' W 066°39'1 0.5 22.9
2017-Jan-07 11:38N 28°01' W 066°40'1 3.2 22.9
2017-Jan-07 11:23N 28°01' W 066°39'0 0.0 22.9
2017-Jan-07 11:20N 28°01' W 066°39'0 0.0 22.9
2017-Jan-07 11:18N 28°01' W 066°39'0 0.0 22.9
2017-Jan-07 09:53N 28°01' W 066°39'1 3.6 22.9
2017-Jan-07 09:43N 28°00' W 066°39'1 4.5 22.9
2017-Jan-07 09:36N 28°00' W 066°40'1 4.4 22.9
2017-Jan-07 09:25N 28°01' W 066°39'116.0 22.9
2017-Jan-07 09:22N 28°00' W 066°40'0 0.0 22.9
2017-Jan-07 07:48N 28°00' W 066°40'0 0.0 22.9
2017-Jan-07 07:45N 28°00' W 066°40'1 0.5 22.9
2017-Jan-07 06:06N 27°59' W 066°39'118.0 22.9
2017-Jan-07 06:04N 28°00' W 066°39'1 0.5 22.9
2017-Jan-07 03:15N 27°59' W 066°40'1 0.3 22.9
2017-Jan-07 01:37N 27°59' W 066°40'0 0.0 22.9
2017-Jan-07 01:33N 27°59' W 066°40'0 0.0 22.9
2017-Jan-07 00:47N 27°59' W 066°40'0 0.0 22.9
2017-Jan-07 00:39N 27°59' W 066°40'0 0.0 22.9
2017-Jan-07 00:10N 27°59' W 066°40'   23.0
Track history (hours):
 
Tides and Currents Weather Stations Pressure Air Temp Water Temp Dewpoint Dewpoint Depression Visibility Wind Speed Wind Dir Waves Ship Positions

Drifting buoy 13526

Last reported at 2017-Jan-17 00:00 UTC. Time now 2017-Jan-17 00:54 UTC.
Position N 26°25' W 067°32'.

Water temperature 24.2 ° C

Date/timePositionNaut miles runAvg speedWind from/ knotsBaromVisibWave heightAir tempDewpointWater temp
2017-Jan-17 00:00N 26°25' W 067°32'0 0.0 24.2
2017-Jan-16 22:53N 26°25' W 067°32'0 0.0 24.2
2017-Jan-16 22:51N 26°25' W 067°32'0 0.0 24.2
2017-Jan-16 22:47N 26°25' W 067°32'1 1.4 24.2
2017-Jan-16 22:21N 26°26' W 067°32'0 0.0 24.2
2017-Jan-16 22:07N 26°26' W 067°32'1 6.0 24.2
2017-Jan-16 22:01N 26°26' W 067°32'0 0.0 24.2
2017-Jan-16 21:12N 26°26' W 067°32'1 1.3 24.3
2017-Jan-16 20:45N 26°26' W 067°32'1 6.9 24.3
2017-Jan-16 20:38N 26°26' W 067°32'0 0.0 24.3
2017-Jan-16 20:29N 26°26' W 067°32'0 0.0 24.3
2017-Jan-16 19:06N 26°26' W 067°32'0 0.0 24.3
2017-Jan-16 19:04N 26°26' W 067°32'1 8.1 24.3
2017-Jan-16 19:00N 26°26' W 067°32'1 0.8 24.3
2017-Jan-16 17:25N 26°27' W 067°31'0 0.0 24.4
2017-Jan-16 17:22N 26°27' W 067°31'1 0.5 24.4
2017-Jan-16 15:53N 26°28' W 067°31'0 0.0 24.4
2017-Jan-16 15:05N 26°28' W 067°31'0 0.0 24.3
2017-Jan-16 15:00N 26°28' W 067°31'1 0.7 24.3
2017-Jan-16 14:16N 26°28' W 067°30'0 0.0 24.3
2017-Jan-16 14:11N 26°28' W 067°30'0 0.0 24.3
2017-Jan-16 13:22N 26°28' W 067°30'1 6.0 24.3
2017-Jan-16 13:10N 26°29' W 067°30'1 1.0 24.3
2017-Jan-16 12:33N 26°28' W 067°30'1 0.6 24.3
2017-Jan-16 11:41N 26°28' W 067°29'0 0.0 24.3
2017-Jan-16 11:35N 26°28' W 067°29'322.1 24.3
2017-Jan-16 11:27N 26°27' W 067°26'3 1.9 24.3
2017-Jan-16 10:03N 26°25' W 067°28'0 0.0 24.3
2017-Jan-16 10:00N 26°25' W 067°28'116.1 24.3
2017-Jan-16 09:57N 26°25' W 067°27'878.0 24.3
2017-Jan-16 09:51N 26°33' W 067°27'2 1.6 24.3
2017-Jan-16 08:20N 26°31' W 067°27'2 4.5 24.3
2017-Jan-16 07:48N 26°33' W 067°27'2 0.3 24.3
2017-Jan-16 02:37N 26°32' W 067°25'0 0.0 24.3
2017-Jan-16 02:34N 26°32' W 067°25'1 1.8 24.3
2017-Jan-16 01:52N 26°33' W 067°24'0 0.0 24.3
2017-Jan-16 01:46N 26°33' W 067°24'1 0.8 24.3
2017-Jan-16 01:00N 26°34' W 067°24'0 0.0 24.3
2017-Jan-16 00:53N 26°34' W 067°24'0 0.0 24.3
2017-Jan-16 00:43N 26°34' W 067°24'1 3.2 24.3
2017-Jan-16 00:28N 26°34' W 067°23'1 1.9 24.3
2017-Jan-16 00:11N 26°34' W 067°23'0 0.0
2017-Jan-15 23:05N 26°34' W 067°23'0 0.0 24.3
2017-Jan-15 23:01N 26°34' W 067°23'0 0.0 24.3
2017-Jan-15 22:58N 26°34' W 067°23'1 3.6 24.3
2017-Jan-15 22:48N 26°35' W 067°23'0 0.0 24.3
2017-Jan-15 22:45N 26°35' W 067°23'0 0.0 24.3
2017-Jan-15 22:33N 26°35' W 067°23'1 6.4 24.3
2017-Jan-15 22:28N 26°35' W 067°22'1 0.6 24.3
2017-Jan-15 21:24N 26°35' W 067°22'0 0.0 24.3
2017-Jan-15 21:18N 26°35' W 067°22'0 0.0 24.3
2017-Jan-15 21:06N 26°35' W 067°22'2 6.9 24.3
2017-Jan-15 20:52N 26°37' W 067°21'0 0.0 24.3
2017-Jan-15 19:15N 26°37' W 067°21'0 0.0 24.3
2017-Jan-15 19:09N 26°37' W 067°21'1 0.7 24.3
2017-Jan-15 17:36N 26°37' W 067°20'1 0.6 24.3
2017-Jan-15 15:25N 26°38' W 067°19'1 8.0 24.3
2017-Jan-15 15:21N 26°38' W 067°19'0 0.0 24.3
2017-Jan-15 14:38N 26°38' W 067°19'0 0.0 24.3
2017-Jan-15 14:33N 26°38' W 067°19'1 6.4 24.3
2017-Jan-15 14:28N 26°38' W 067°18'0 0.0 24.3
2017-Jan-15 13:44N 26°38' W 067°18'0 0.0 24.3
2017-Jan-15 13:42N 26°38' W 067°18'1 3.1 24.3
2017-Jan-15 13:21N 26°38' W 067°17'0 0.0 24.3
2017-Jan-15 12:56N 26°38' W 067°17'0 0.0 24.3
2017-Jan-15 12:09N 26°38' W 067°17'0 0.0 24.3
2017-Jan-15 11:46N 26°38' W 067°17'1 4.0 24.3
2017-Jan-15 11:38N 26°38' W 067°16'0 0.0 24.3
2017-Jan-15 11:23N 26°38' W 067°16'0 0.0 24.3
2017-Jan-15 11:20N 26°38' W 067°16'1 6.4 24.3
2017-Jan-15 11:15N 26°38' W 067°16'1 0.8 24.3
2017-Jan-15 10:34N 26°38' W 067°15'0 0.0 24.3
2017-Jan-15 10:31N 26°38' W 067°15'1 9.7 24.3
2017-Jan-15 10:26N 26°37' W 067°16'1 2.3 24.3
2017-Jan-15 10:05N 26°38' W 067°15'1 6.4 24.3
2017-Jan-15 10:00N 26°38' W 067°16'1 1.8 24.3
2017-Jan-15 09:42N 26°38' W 067°15'1 9.2 24.3
2017-Jan-15 09:34N 26°37' W 067°14'0 0.0 24.3
2017-Jan-15 08:50N 26°37' W 067°14'232.2 24.3
2017-Jan-15 08:47N 26°37' W 067°12'1 0.6 24.3
2017-Jan-15 07:53N 26°37' W 067°13'114.7 24.3
2017-Jan-15 07:48N 26°38' W 067°11'0 0.0 24.3
2017-Jan-15 06:13N 26°38' W 067°11'2 0.7 24.3
2017-Jan-15 03:00N 26°38' W 067°09'1 0.7 24.3
2017-Jan-15 02:14N 26°38' W 067°08'1 3.6
2017-Jan-15 02:05N 26°38' W 067°08'0 0.0 24.3
2017-Jan-15 01:22N 26°38' W 067°08'0 0.0 24.3
2017-Jan-15 01:19N 26°38' W 067°08'110.7 24.3
2017-Jan-15 01:13N 26°38' W 067°07'0 0.0 24.3
2017-Jan-15 00:34N 26°38' W 067°07'1 8.0 24.3
2017-Jan-15 00:28N 26°37' W 067°07'1 1.4 24.3
2017-Jan-14 23:36N 26°38' W 067°06'0 0.0 24.3
2017-Jan-14 23:24N 26°38' W 067°06'0 0.0 24.3
2017-Jan-14 23:16N 26°38' W 067°06'0 0.0 24.3
2017-Jan-14 23:13N 26°38' W 067°06'0 0.0 24.3
2017-Jan-14 23:08N 26°38' W 067°06'0 0.0 24.3
2017-Jan-14 22:52N 26°38' W 067°06'1 1.1 24.4
2017-Jan-14 21:43N 26°38' W 067°05'1 4.6 24.4
2017-Jan-14 21:36N 26°38' W 067°04'1 9.0 24.4
2017-Jan-14 21:32N 26°38' W 067°04'110.7 24.4
2017-Jan-14 21:29N 26°38' W 067°05'1 4.0 24.4
2017-Jan-14 21:21N 26°38' W 067°04'0 0.0 24.4
2017-Jan-14 21:13N 26°38' W 067°04'0 0.0 24.4
2017-Jan-14 21:06N 26°38' W 067°04'1 0.8 24.4
2017-Jan-14 19:28N 26°39' W 067°04'1 9.2 24.4
2017-Jan-14 19:20N 26°40' W 067°02'0 0.0 24.4
2017-Jan-14 17:48N 26°40' W 067°02'115.8 24.4
2017-Jan-14 17:43N 26°41' W 067°02'0 0.0 24.4
2017-Jan-14 17:40N 26°41' W 067°02'0 0.0 24.4
2017-Jan-14 15:42N 26°41' W 067°02'0 0.0 24.4
2017-Jan-14 15:01N 26°41' W 067°02'0 0.0 24.4
2017-Jan-14 14:52N 26°41' W 067°02'1 0.8 24.4
2017-Jan-14 14:04N 26°41' W 067°02'1 4.0 24.4
2017-Jan-14 13:56N 26°41' W 067°01'0 0.0 24.4
2017-Jan-14 13:18N 26°41' W 067°01'1 8.0 24.4
2017-Jan-14 13:14N 26°41' W 067°02'1 1.4 24.4
2017-Jan-14 12:21N 26°42' W 067°01'0 0.0 24.4
2017-Jan-14 11:52N 26°42' W 067°01'0 0.0 24.4
2017-Jan-14 11:46N 26°42' W 067°01'0 0.0 24.4
2017-Jan-14 11:05N 26°42' W 067°01'0 0.0 24.4
2017-Jan-14 11:02N 26°42' W 067°01'1 4.8 24.4
2017-Jan-14 10:52N 26°43' W 067°00'0 0.0
2017-Jan-14 10:16N 26°43' W 067°00'0 0.0 24.4
2017-Jan-14 10:11N 26°43' W 067°00'0 0.0 24.4
2017-Jan-14 10:06N 26°43' W 067°00'0 0.0 24.4
2017-Jan-14 09:47N 26°43' W 067°00'0 0.0 24.4
2017-Jan-14 09:25N 26°43' W 067°00'0 0.0 24.4
2017-Jan-14 09:20N 26°43' W 067°00'1 8.0 24.4
2017-Jan-14 09:16N 26°43' W 066°59'0 0.0 24.4
2017-Jan-14 08:07N 26°43' W 066°59'115.8 24.4
2017-Jan-14 08:02N 26°44' W 066°59'1 0.3 24.4
2017-Jan-14 03:20N 26°44' W 066°58'0 0.0 24.2
2017-Jan-14 03:17N 26°44' W 066°58'0 0.0 24.2
2017-Jan-14 02:36N 26°44' W 066°58'0 0.0 24.2
2017-Jan-14 02:33N 26°44' W 066°58'1 0.9 24.2
2017-Jan-14 01:42N 26°45' W 066°57'0 0.0 24.2
2017-Jan-14 01:34N 26°45' W 066°57'1 1.1 24.2
2017-Jan-14 00:51N 26°46' W 066°56'110.7 24.2
2017-Jan-14 00:48N 26°46' W 066°56'0 0.0 24.2
2017-Jan-13 23:59N 26°46' W 066°56'1 5.1 24.2
2017-Jan-13 23:52N 26°46' W 066°56'116.1 24.2
2017-Jan-13 23:50N 26°46' W 066°55'0 0.0 24.2
2017-Jan-13 23:26N 26°46' W 066°55'110.3 24.2
2017-Jan-13 23:19N 26°47' W 066°55'1 0.7 24.2
2017-Jan-13 22:13N 26°48' W 066°55'0 0.0 24.3
2017-Jan-13 21:46N 26°48' W 066°55'112.0
2017-Jan-13 21:43N 26°47' W 066°55'352.6 24.2
2017-Jan-13 21:40N 26°50' W 066°53'0 0.0 24.2
2017-Jan-13 19:37N 26°50' W 066°53'221.6 24.3
2017-Jan-13 19:32N 26°52' W 066°53'0 0.0 24.3
2017-Jan-13 18:00N 26°52' W 066°53'430.9 24.3
2017-Jan-13 17:53N 26°55' W 066°53'0 0.0 24.3
2017-Jan-13 15:16N 26°55' W 066°53'1 1.0 24.3
2017-Jan-13 14:26N 26°56' W 066°54'1 6.0 24.3
2017-Jan-13 14:20N 26°56' W 066°54'0 0.0 24.3
2017-Jan-13 13:40N 26°56' W 066°54'214.1
2017-Jan-13 13:32N 26°58' W 066°55'0 0.0 24.3
2017-Jan-13 12:43N 26°58' W 066°55'1 5.3 24.2
2017-Jan-13 12:37N 26°58' W 066°55'1 1.0
2017-Jan-13 12:06N 26°58' W 066°55'0 0.0 24.2
2017-Jan-13 12:05N 26°58' W 066°55'1 2.2 24.2
2017-Jan-13 11:36N 26°58' W 066°56'1 1.0 24.1
2017-Jan-13 10:22N 26°59' W 066°56'1 0.7 24.0
2017-Jan-13 08:22N 27°01' W 066°55'0 0.0 23.6
2017-Jan-13 08:16N 27°01' W 066°55'1 8.0 23.6
2017-Jan-13 08:10N 27°01' W 066°55'2 0.5 23.6
2017-Jan-13 03:37N 27°03' W 066°53'1 0.8 23.5
2017-Jan-13 02:53N 27°04' W 066°53'1 0.6 23.4
2017-Jan-13 02:02N 27°04' W 066°53'1 4.4 23.3
2017-Jan-13 01:51N 27°04' W 066°52'0 0.0 23.3
2017-Jan-13 01:16N 27°04' W 066°52'0 0.0 23.3
2017-Jan-13 01:13N 27°04' W 066°52'1 4.5 23.3
2017-Jan-13 01:05N 27°05' W 066°52'0 0.0 23.3
2017-Jan-13 00:22N 27°05' W 066°52'0 0.0 23.2
2017-Jan-13 00:15N 27°05' W 066°52'0 0.0 23.2
2017-Jan-12 23:46N 27°05' W 066°52'1 4.8 23.2
2017-Jan-12 23:36N 27°05' W 066°52'1 0.7 23.2
2017-Jan-12 22:46N 27°06' W 066°52'1 4.5 23.0
2017-Jan-12 22:38N 27°07' W 066°52'0 0.0 23.0
2017-Jan-12 22:06N 27°07' W 066°52'0 0.0 22.8
2017-Jan-12 22:00N 27°07' W 066°52'1 4.0 22.8
2017-Jan-12 21:52N 27°07' W 066°51'2 2.0 22.7
2017-Jan-12 21:03N 27°08' W 066°50'0 0.0 22.7
2017-Jan-12 20:26N 27°08' W 066°50'0 0.0 22.7
2017-Jan-12 19:53N 27°08' W 066°50'0 0.0 22.7
2017-Jan-12 19:50N 27°08' W 066°50'110.3 22.7
2017-Jan-12 19:43N 27°09' W 066°50'0 0.0 22.7
2017-Jan-12 18:07N 27°09' W 066°50'357.7 22.7
2017-Jan-12 18:04N 27°11' W 066°48'0 0.0 22.7
2017-Jan-12 15:37N 27°11' W 066°48'1 0.7 22.7
2017-Jan-12 14:47N 27°12' W 066°48'1 8.0 22.7
2017-Jan-12 14:41N 27°13' W 066°47'0 0.0 22.7
2017-Jan-12 14:00N 27°13' W 066°47'214.1 22.7
2017-Jan-12 13:52N 27°14' W 066°48'0 0.0 22.7
2017-Jan-12 13:05N 27°14' W 066°48'1 1.0 22.7
2017-Jan-12 12:34N 27°14' W 066°47'1 2.7 22.7
2017-Jan-12 12:22N 27°14' W 066°47'0 0.0 22.7
2017-Jan-12 12:17N 27°14' W 066°47'113.1 22.7
2017-Jan-12 12:11N 27°16' W 066°47'0 0.0 22.7
2017-Jan-12 12:02N 27°16' W 066°47'0 0.0 22.7
2017-Jan-12 10:53N 27°16' W 066°47'1 2.3 22.7
2017-Jan-12 10:39N 27°16' W 066°47'110.7 22.7
2017-Jan-12 10:36N 27°16' W 066°47'1 4.0 22.7
2017-Jan-12 10:27N 27°16' W 066°47'1 4.5 22.7
2017-Jan-12 10:19N 27°16' W 066°47'1 1.1 22.7
2017-Jan-12 09:16N 27°17' W 066°47'119.7 22.7
2017-Jan-12 09:12N 27°18' W 066°47'0 0.0 22.7
2017-Jan-12 08:47N 27°18' W 066°47'0 0.0 22.7
2017-Jan-12 08:33N 27°18' W 066°47'0 0.0 22.7
2017-Jan-12 08:29N 27°18' W 066°47'2 1.2 22.7
2017-Jan-12 06:46N 27°19' W 066°49'448.2 22.8
2017-Jan-12 06:41N 27°22' W 066°46'0 0.0 22.8
2017-Jan-12 03:07N 27°22' W 066°46'0 0.0 22.8
2017-Jan-12 02:24N 27°22' W 066°46'1 4.5 22.8
2017-Jan-12 02:16N 27°23' W 066°46'0 0.0 22.8
2017-Jan-12 01:38N 27°23' W 066°46'1 3.3 22.7
2017-Jan-12 01:27N 27°23' W 066°46'1 0.9 22.7
2017-Jan-12 00:49N 27°24' W 066°46'1 6.0
2017-Jan-12 00:43N 27°23' W 066°46'1 4.5 22.7
2017-Jan-12 00:35N 27°24' W 066°46'0 0.0 22.7
2017-Jan-12 00:10N 27°24' W 066°46'0 0.0 22.7
2017-Jan-11 23:52N 27°24' W 066°46'0 0.0 22.7
2017-Jan-11 23:49N 27°24' W 066°46'1 1.5 22.7
2017-Jan-11 23:17N 27°25' W 066°45'1 6.4 22.7
2017-Jan-11 23:12N 27°25' W 066°46'1 1.2 22.7
2017-Jan-11 22:32N 27°25' W 066°45'0 0.0 22.7
2017-Jan-11 22:29N 27°25' W 066°45'0 0.0 22.7
2017-Jan-11 22:23N 27°25' W 066°45'0 0.0
2017-Jan-11 22:06N 27°25' W 066°45'132.0 22.7
2017-Jan-11 22:05N 27°25' W 066°46'1 2.7 22.7
2017-Jan-11 21:36N 27°26' W 066°45'1 0.8 22.7
2017-Jan-11 20:53N 27°27' W 066°45'0 0.0 22.7
2017-Jan-11 20:51N 27°27' W 066°45'0 0.0
2017-Jan-11 20:04N 27°27' W 066°45'0 0.0 22.7
2017-Jan-11 20:01N 27°27' W 066°45'1 0.7 22.7
2017-Jan-11 18:24N 27°28' W 066°45'0 0.0 22.6
2017-Jan-11 18:19N 27°28' W 066°45'0 0.0 22.6
2017-Jan-11 18:16N 27°28' W 066°45'2 0.8 22.6
2017-Jan-11 16:00N 27°30' W 066°45'1 4.0 22.6
2017-Jan-11 15:52N 27°30' W 066°46'0 0.0
2017-Jan-11 15:06N 27°30' W 066°46'124.0 22.6
2017-Jan-11 15:03N 27°31' W 066°46'1 0.7 22.6
2017-Jan-11 14:16N 27°31' W 066°46'0 0.0
2017-Jan-11 14:14N 27°31' W 066°46'0 0.0 22.6
2017-Jan-11 13:25N 27°31' W 066°46'1 1.3 22.6
2017-Jan-11 12:31N 27°32' W 066°46'1 5.1 22.6
2017-Jan-11 12:24N 27°33' W 066°46'0 0.0 22.6
2017-Jan-11 11:21N 27°33' W 066°46'0 0.0 22.7
2017-Jan-11 10:58N 27°33' W 066°46'1 4.5 22.7
2017-Jan-11 10:42N 27°34' W 066°46'0 0.0 22.7
2017-Jan-11 09:36N 27°34' W 066°46'0 0.0 22.7
2017-Jan-11 09:20N 27°34' W 066°46'1 1.3 22.7
2017-Jan-11 08:44N 27°35' W 066°47'110.6 22.6
2017-Jan-11 08:41N 27°35' W 066°46'113.1 22.6
2017-Jan-11 08:35N 27°36' W 066°47'0 0.0 22.6
2017-Jan-11 07:03N 27°36' W 066°47'0 0.0 22.6
2017-Jan-11 07:00N 27°36' W 066°47'325.5 22.6
2017-Jan-11 06:52N 27°39' W 066°45'0 0.0 22.7
2017-Jan-11 02:38N 27°39' W 066°45'1 1.0 22.7
2017-Jan-11 01:52N 27°40' W 066°44'1 0.8 22.7
2017-Jan-11 01:04N 27°40' W 066°44'0 0.0 22.7
2017-Jan-11 01:01N 27°40' W 066°44'1 8.0 22.7
2017-Jan-11 00:57N 27°40' W 066°44'1 0.9 22.7
2017-Jan-11 00:17N 27°41' W 066°44'1 6.4 22.7
2017-Jan-11 00:12N 27°41' W 066°44'0 0.0 22.7
2017-Jan-11 00:01N 27°41' W 066°44'0 0.0 22.7
2017-Jan-10 23:58N 27°41' W 066°44'0 0.0 22.7
2017-Jan-10 23:48N 27°41' W 066°44'0 0.0 22.7
2017-Jan-10 23:45N 27°41' W 066°44'2 2.3 22.7
2017-Jan-10 22:57N 27°43' W 066°44'0 0.0 22.7
2017-Jan-10 22:23N 27°43' W 066°44'0 0.0 22.7
2017-Jan-10 22:19N 27°43' W 066°44'1 2.5 22.7
2017-Jan-10 22:06N 27°43' W 066°44'136.0 22.7
2017-Jan-10 22:05N 27°43' W 066°44'0 0.0 22.6
2017-Jan-10 21:20N 27°43' W 066°44'110.3 22.6
2017-Jan-10 21:13N 27°44' W 066°44'0 0.0 22.6
2017-Jan-10 20:38N 27°44' W 066°44'1 3.1 22.7
2017-Jan-10 20:13N 27°46' W 066°43'0 0.0 22.7
2017-Jan-10 18:35N 27°46' W 066°43'1 4.0 22.6
2017-Jan-10 18:27N 27°46' W 066°44'2 0.7 22.6
2017-Jan-10 15:28N 27°47' W 066°43'112.0 22.7
2017-Jan-10 15:25N 27°48' W 066°43'1 0.8 22.7
2017-Jan-10 14:43N 27°48' W 066°42'0 0.0 22.7
2017-Jan-10 14:40N 27°48' W 066°42'110.6 22.7
2017-Jan-10 14:37N 27°48' W 066°43'2 1.9 22.7
2017-Jan-10 13:47N 27°49' W 066°41'0 0.0 22.7
2017-Jan-10 13:01N 27°49' W 066°41'0 0.0 22.7
2017-Jan-10 12:51N 27°49' W 066°41'0 0.0
2017-Jan-10 12:41N 27°49' W 066°41'115.7 22.7
2017-Jan-10 12:36N 27°50' W 066°41'0 0.0 22.7
2017-Jan-10 12:33N 27°50' W 066°41'0 0.0 22.7
2017-Jan-10 11:45N 27°50' W 066°41'1 4.5 22.7
2017-Jan-10 11:38N 27°50' W 066°40'0 0.0 22.7
2017-Jan-10 11:27N 27°50' W 066°40'1 1.2 22.7
2017-Jan-10 10:58N 27°51' W 066°40'1 6.0 22.7
2017-Jan-10 10:52N 27°52' W 066°40'0 0.0 22.7
2017-Jan-10 10:03N 27°52' W 066°40'0 0.0 22.7
2017-Jan-10 09:58N 27°52' W 066°40'0 0.0 22.7
2017-Jan-10 09:50N 27°52' W 066°40'0 0.0 22.7
2017-Jan-10 09:47N 27°52' W 066°40'113.1 22.7
2017-Jan-10 09:41N 27°53' W 066°40'1 0.6 22.7
2017-Jan-10 08:52N 27°53' W 066°39'227.0 22.7
2017-Jan-10 08:48N 27°55' W 066°39'0 0.0 22.7
2017-Jan-10 08:06N 27°55' W 066°39'0 0.0 22.7
2017-Jan-10 07:13N 27°55' W 066°39'0 0.0 22.7
2017-Jan-10 07:06N 27°55' W 066°39'5289.8 22.7
2017-Jan-10 07:05N 27°59' W 066°38'0 0.0 22.7
2017-Jan-10 03:04N 27°59' W 066°38'2 1.0 22.7
2017-Jan-10 01:24N 28°01' W 066°37'1 8.7 22.7
2017-Jan-10 01:15N 28°02' W 066°38'0 0.0 22.7
2017-Jan-10 00:37N 28°02' W 066°38'0 0.0 22.7
2017-Jan-10 00:32N 28°02' W 066°38'148.0 22.7
2017-Jan-10 00:31N 28°02' W 066°38'0 0.0 22.7
2017-Jan-10 00:17N 28°02' W 066°38'0 0.0 22.7
2017-Jan-10 00:11N 28°02' W 066°38'1 1.1 22.7
2017-Jan-09 23:42N 28°02' W 066°38'0 0.0 22.7
2017-Jan-09 23:22N 28°02' W 066°38'1 1.1 22.7
2017-Jan-09 22:39N 28°03' W 066°38'0 0.0 22.7
2017-Jan-09 22:31N 28°03' W 066°38'0 0.0 22.7
2017-Jan-09 22:28N 28°03' W 066°38'1 1.2 22.7
2017-Jan-09 21:47N 28°04' W 066°38'0 0.0 22.7
2017-Jan-09 21:38N 28°04' W 066°38'2 2.6 22.7
2017-Jan-09 20:56N 28°05' W 066°38'1 6.0 22.7
2017-Jan-09 20:50N 28°05' W 066°38'1 1.6 22.7
2017-Jan-09 20:27N 28°04' W 066°38'1 6.4 22.7
2017-Jan-09 20:22N 28°04' W 066°38'1 0.8 22.7
2017-Jan-09 18:47N 28°05' W 066°38'0 0.0 22.8
2017-Jan-09 18:43N 28°05' W 066°38'0 0.0 22.8
2017-Jan-09 18:40N 28°05' W 066°38'2 1.2 22.8
2017-Jan-09 17:02N 28°07' W 066°37'0 0.0 22.8
2017-Jan-09 15:46N 28°07' W 066°37'0 0.0 22.8
2017-Jan-09 14:59N 28°07' W 066°37'1 0.9 22.8
2017-Jan-09 14:07N 28°07' W 066°36'1 5.3 22.8
2017-Jan-09 14:01N 28°07' W 066°35'0 0.0 22.8
2017-Jan-09 13:22N 28°07' W 066°35'1 8.0 22.8
2017-Jan-09 13:16N 28°08' W 066°35'0 0.0 22.8
2017-Jan-09 12:52N 28°08' W 066°35'112.7 22.8
2017-Jan-09 12:47N 28°08' W 066°34'0 0.0 22.8
2017-Jan-09 12:06N 28°08' W 066°34'1 3.2 22.9
2017-Jan-09 11:56N 28°08' W 066°34'112.0
2017-Jan-09 11:52N 28°08' W 066°34'0 0.0 22.9
2017-Jan-09 11:17N 28°08' W 066°34'1 2.9 22.9
2017-Jan-09 11:06N 28°08' W 066°33'0 0.0 22.9
2017-Jan-09 10:27N 28°08' W 066°33'1 8.0 22.9
2017-Jan-09 10:21N 28°09' W 066°32'110.3 22.9
2017-Jan-09 10:14N 28°10' W 066°32'0 0.0 22.9
2017-Jan-09 09:29N 28°10' W 066°32'0 0.0 22.8
2017-Jan-09 09:06N 28°10' W 066°32'0 0.0 22.9
2017-Jan-09 09:05N 28°10' W 066°32'1 7.2 22.9
2017-Jan-09 09:00N 28°10' W 066°32'237.5 22.9
2017-Jan-09 08:57N 28°11' W 066°32'1 4.6 22.9
2017-Jan-09 08:40N 28°10' W 066°32'1 1.0 22.9
2017-Jan-09 07:25N 28°11' W 066°32'320.0 22.9
2017-Jan-09 07:16N 28°14' W 066°32'0 0.0 22.9
2017-Jan-09 03:23N 28°14' W 066°32'1 0.7 22.9
2017-Jan-09 02:37N 28°14' W 066°32'256.3 22.9
2017-Jan-09 02:35N 28°16' W 066°32'1 0.8 22.9
2017-Jan-09 01:37N 28°17' W 066°32'0 0.0 23.0
2017-Jan-09 00:52N 28°17' W 066°32'1 6.0 23.0
2017-Jan-09 00:46N 28°17' W 066°32'0 0.0 23.0
2017-Jan-09 00:22N 28°17' W 066°32'1 1.9 23.1
2017-Jan-09 00:03N 28°18' W 066°32'116.0 23.1
2017-Jan-09 00:00N 28°19' W 066°33'0 0.0 23.1
2017-Jan-08 23:07N 28°19' W 066°33'124.0
2017-Jan-08 23:05N 28°19' W 066°32'0 0.0 23.0
2017-Jan-08 22:45N 28°19' W 066°32'0 0.0 23.0
2017-Jan-08 22:42N 28°19' W 066°32'0 0.0 23.0
2017-Jan-08 22:38N 28°19' W 066°32'1 1.5 23.1
2017-Jan-08 22:07N 28°20' W 066°33'216.9 23.1
2017-Jan-08 22:01N 28°20' W 066°35'1 1.0 23.1
2017-Jan-08 21:30N 28°20' W 066°34'1 1.8 23.1
2017-Jan-08 21:04N 28°21' W 066°35'1 1.2 23.1
2017-Jan-08 20:35N 28°20' W 066°35'213.3 23.1
2017-Jan-08 20:26N 28°19' W 066°37'0 0.0 23.1
2017-Jan-08 18:52N 28°19' W 066°37'116.0 23.2
2017-Jan-08 18:49N 28°20' W 066°37'1 0.8 23.2
2017-Jan-08 17:16N 28°19' W 066°37'228.1 23.1
2017-Jan-08 17:12N 28°17' W 066°38'0 0.0 23.1
2017-Jan-08 16:07N 28°17' W 066°38'0 0.0 23.1
2017-Jan-08 15:21N 28°17' W 066°38'1 6.9 23.1
2017-Jan-08 15:14N 28°16' W 066°37'0 0.0 23.1
2017-Jan-08 14:30N 28°16' W 066°37'1 8.0 23.1
2017-Jan-08 14:24N 28°16' W 066°38'0 0.0 23.1
2017-Jan-08 13:38N 28°16' W 066°38'1 1.1 23.0
2017-Jan-08 13:04N 28°15' W 066°38'0 0.0 23.0
2017-Jan-08 13:01N 28°15' W 066°38'1 2.4 23.0
2017-Jan-08 12:46N 28°16' W 066°38'0 0.0 23.0
2017-Jan-08 12:43N 28°16' W 066°38'112.0 23.0
2017-Jan-08 12:40N 28°15' W 066°38'0 0.0 23.0
2017-Jan-08 12:35N 28°15' W 066°38'139.3 23.0
2017-Jan-08 12:33N 28°14' W 066°37'0 0.0 23.0
2017-Jan-08 11:27N 28°14' W 066°37'0 0.0 23.0
2017-Jan-08 11:18N 28°14' W 066°37'0 0.0 23.0
2017-Jan-08 10:52N 28°14' W 066°37'0 0.0 22.9
2017-Jan-08 10:49N 28°14' W 066°37'113.1 22.9
2017-Jan-08 10:43N 28°13' W 066°37'0 0.0 22.9
2017-Jan-08 09:43N 28°13' W 066°37'0 0.0 22.9
2017-Jan-08 09:40N 28°13' W 066°37'1 1.4 22.9
2017-Jan-08 09:17N 28°13' W 066°37'0 0.0 22.9
2017-Jan-08 09:13N 28°13' W 066°37'1 6.0 22.9
2017-Jan-08 09:05N 28°12' W 066°37'0 0.0 22.9
2017-Jan-08 07:39N 28°12' W 066°37'0 0.0 22.9
2017-Jan-08 07:36N 28°12' W 066°37'112.0 22.9
2017-Jan-08 07:30N 28°11' W 066°37'0 0.0 22.9
2017-Jan-08 05:52N 28°11' W 066°37'2 0.8 22.9
2017-Jan-08 02:52N 28°08' W 066°37'0 0.0 23.0
2017-Jan-08 02:06N 28°08' W 066°37'1 5.3 23.0
2017-Jan-08 02:00N 28°08' W 066°37'110.6 23.0
2017-Jan-08 01:57N 28°08' W 066°37'0 0.0 23.0
2017-Jan-08 01:20N 28°08' W 066°37'0 0.0 22.9
2017-Jan-08 01:16N 28°08' W 066°37'1 2.0 22.9
2017-Jan-08 00:36N 28°07' W 066°38'1 2.6 22.9
2017-Jan-08 00:22N 28°08' W 066°38'1 7.2 23.0
2017-Jan-08 00:17N 28°07' W 066°38'0 0.0 23.0
2017-Jan-08 00:11N 28°07' W 066°38'0 0.0 23.0
2017-Jan-07 23:38N 28°07' W 066°38'1 1.2 23.0
2017-Jan-07 22:59N 28°07' W 066°38'1 6.9 23.0
2017-Jan-07 22:52N 28°07' W 066°38'1 1.8 23.0
2017-Jan-07 22:32N 28°07' W 066°38'1 1.1 23.0
2017-Jan-07 22:02N 28°07' W 066°38'1 0.8 23.0
2017-Jan-07 21:16N 28°06' W 066°38'1 9.0 23.0
2017-Jan-07 21:12N 28°05' W 066°38'1 2.1 23.0
2017-Jan-07 20:55N 28°06' W 066°38'116.0 23.0
2017-Jan-07 20:52N 28°05' W 066°39'1 6.4 23.0
2017-Jan-07 20:47N 28°05' W 066°38'116.0 23.0
2017-Jan-07 20:44N 28°06' W 066°39'2 1.1 23.0
2017-Jan-07 19:06N 28°04' W 066°40'1 6.0 23.1
2017-Jan-07 19:00N 28°04' W 066°40'0 0.0 23.1
2017-Jan-07 17:28N 28°04' W 066°40'1 9.8 23.1
2017-Jan-07 17:20N 28°02' W 066°39'1 0.4 23.1
2017-Jan-07 15:38N 28°02' W 066°39'0 0.0 23.0
2017-Jan-07 14:50N 28°02' W 066°39'0 0.0 22.9
2017-Jan-07 14:45N 28°02' W 066°39'0 0.0 22.9
2017-Jan-07 14:06N 28°02' W 066°39'0 0.0 22.9
2017-Jan-07 13:59N 28°02' W 066°39'0 0.0 22.9
2017-Jan-07 13:52N 28°02' W 066°39'0 0.0
2017-Jan-07 13:13N 28°02' W 066°39'0 0.0 22.9
2017-Jan-07 13:06N 28°02' W 066°39'1 0.5 22.9
2017-Jan-07 11:38N 28°01' W 066°40'1 3.2 22.9
2017-Jan-07 11:23N 28°01' W 066°39'0 0.0 22.9
2017-Jan-07 11:20N 28°01' W 066°39'0 0.0 22.9
2017-Jan-07 11:18N 28°01' W 066°39'0 0.0 22.9
2017-Jan-07 09:53N 28°01' W 066°39'1 3.6 22.9
2017-Jan-07 09:43N 28°00' W 066°39'1 4.5 22.9
2017-Jan-07 09:36N 28°00' W 066°40'1 4.4 22.9
2017-Jan-07 09:25N 28°01' W 066°39'116.0 22.9
2017-Jan-07 09:22N 28°00' W 066°40'0 0.0 22.9
2017-Jan-07 07:48N 28°00' W 066°40'0 0.0 22.9
2017-Jan-07 07:45N 28°00' W 066°40'1 0.5 22.9
2017-Jan-07 06:06N 27°59' W 066°39'118.0 22.9
2017-Jan-07 06:04N 28°00' W 066°39'1 0.5 22.9
2017-Jan-07 03:15N 27°59' W 066°40'1 0.3 22.9
2017-Jan-07 01:37N 27°59' W 066°40'0 0.0 22.9
2017-Jan-07 01:33N 27°59' W 066°40'0 0.0 22.9
2017-Jan-07 00:47N 27°59' W 066°40'0 0.0 22.9
2017-Jan-07 00:39N 27°59' W 066°40'0 0.0 22.9
2017-Jan-07 00:10N 27°59' W 066°40'   23.0

Dump ship's entire track history